createdAt,value
2017-11-16T00:01:50.792Z,13.80
2017-11-16T00:04:17.879Z,18.23
2017-11-16T00:06:44.927Z,17.80
2017-11-16T00:09:11.902Z,15.63
2017-11-16T00:11:38.105Z,14.90
2017-11-16T00:14:04.431Z,12.43
2017-11-16T00:16:32.220Z,15.80
2017-11-16T00:19:00.156Z,17.13
2017-11-16T00:21:30.724Z,28.70
2017-11-16T00:23:58.140Z,23.00
2017-11-16T00:26:24.741Z,27.40
2017-11-16T00:28:51.232Z,17.17
2017-11-16T00:31:18.193Z,12.07
2017-11-16T00:33:52.307Z,15.03
2017-11-16T00:36:20.196Z,16.60
2017-11-16T00:38:48.736Z,14.37
2017-11-16T00:41:15.869Z,13.90
2017-11-16T00:43:44.686Z,15.00
2017-11-16T00:46:10.878Z,16.90
2017-11-16T00:48:39.553Z,15.03
2017-11-16T00:51:05.828Z,14.00
2017-11-16T00:53:32.739Z,14.37
2017-11-16T00:56:04.558Z,16.00
2017-11-16T00:58:30.785Z,15.73
2017-11-16T01:00:57.014Z,13.93
2017-11-16T01:03:25.009Z,15.23
2017-11-16T01:05:52.969Z,17.03
2017-11-16T01:08:20.297Z,19.67
2017-11-16T01:10:46.891Z,18.90
2017-11-16T01:13:14.947Z,14.57
2017-11-16T01:15:41.142Z,15.20
2017-11-16T01:18:10.929Z,25.07
2017-11-16T01:20:38.056Z,18.20
2017-11-16T01:23:06.807Z,19.97
2017-11-16T01:25:35.179Z,22.13
2017-11-16T01:28:02.189Z,20.23
2017-11-16T01:30:32.822Z,19.73
2017-11-16T01:32:59.416Z,18.47
2017-11-16T01:35:25.642Z,19.93
2017-11-16T01:37:51.840Z,18.10
2017-11-16T01:40:18.045Z,18.77
2017-11-16T01:42:44.983Z,19.00
2017-11-16T01:45:12.628Z,22.67
2017-11-16T01:47:38.837Z,17.97
2017-11-16T01:50:05.707Z,20.70
2017-11-16T01:52:33.224Z,24.67
2017-11-16T01:55:00.269Z,22.60
2017-11-16T01:57:26.826Z,21.10
2017-11-16T01:59:54.156Z,22.60
2017-11-16T02:02:33.346Z,27.33
2017-11-16T02:05:00.825Z,22.87
2017-11-16T02:07:29.390Z,24.70
2017-11-16T02:09:55.589Z,26.13
2017-11-16T02:12:22.759Z,20.87
2017-11-16T02:14:48.954Z,23.13
2017-11-16T02:17:15.890Z,24.50
2017-11-16T02:19:42.740Z,20.70
2017-11-16T02:22:08.941Z,22.70
2017-11-16T02:24:36.929Z,21.03
2017-11-16T02:27:03.489Z,20.90
2017-11-16T02:29:36.990Z,19.93
2017-11-16T02:32:04.192Z,21.30
2017-11-16T02:34:30.747Z,29.90
2017-11-16T02:36:58.526Z,22.53
2017-11-16T02:39:24.744Z,34.47
2017-11-16T02:41:51.000Z,34.07
2017-11-16T02:44:17.610Z,31.70
2017-11-16T02:46:45.727Z,33.63
2017-11-16T02:49:12.941Z,25.10
2017-11-16T02:51:40.941Z,27.23
2017-11-16T02:54:07.159Z,29.33
2017-11-16T02:56:33.359Z,27.03
2017-11-16T02:59:02.611Z,25.73
2017-11-16T03:01:30.201Z,26.60
2017-11-16T03:03:57.246Z,26.33
2017-11-16T03:06:24.180Z,33.80
2017-11-16T03:08:51.112Z,21.90
2017-11-16T03:11:18.469Z,27.13
2017-11-16T03:13:46.586Z,28.90
2017-11-16T03:16:15.394Z,23.87
2017-11-16T03:18:41.930Z,21.93
2017-11-16T03:21:08.103Z,23.60
2017-11-16T03:23:38.245Z,31.17
2017-11-16T03:26:06.847Z,22.93
2017-11-16T03:28:33.186Z,27.67
2017-11-16T03:30:59.445Z,24.60
2017-11-16T03:33:29.290Z,34.67
2017-11-16T03:35:57.692Z,29.17
2017-11-16T03:38:25.191Z,28.10
2017-11-16T03:40:52.296Z,33.40
2017-11-16T03:43:19.237Z,23.40
2017-11-16T03:45:49.071Z,23.97
2017-11-16T03:48:16.007Z,20.43
2017-11-16T03:50:42.625Z,25.80
2017-11-16T03:53:11.040Z,20.83
2017-11-16T03:55:38.475Z,22.10
2017-11-16T03:58:08.055Z,28.83
2017-11-16T04:00:35.432Z,27.67
2017-11-16T04:03:02.329Z,25.33
2017-11-16T04:05:30.169Z,25.13
2017-11-16T04:07:59.741Z,30.53
2017-11-16T04:10:28.139Z,28.10
2017-11-16T04:12:57.860Z,27.33
2017-11-16T04:15:28.731Z,25.87
2017-11-16T04:17:58.134Z,31.80
2017-11-16T04:20:26.026Z,23.50
2017-11-16T04:22:53.490Z,26.30
2017-11-16T04:25:34.639Z,31.17
2017-11-16T04:28:01.840Z,26.13
2017-11-16T04:30:29.598Z,30.93
2017-11-16T04:32:58.563Z,31.83
2017-11-16T04:35:25.453Z,26.63
2017-11-16T04:37:52.773Z,33.60
2017-11-16T04:40:19.905Z,31.63
2017-11-16T04:42:51.555Z,37.43
2017-11-16T04:45:21.828Z,24.50
2017-11-16T04:47:48.760Z,26.30
2017-11-16T04:50:16.434Z,29.67
2017-11-16T04:52:43.530Z,28.13
2017-11-16T04:55:12.503Z,30.13
2017-11-16T04:57:39.059Z,33.30
2017-11-16T05:00:06.569Z,29.73
2017-11-16T05:02:33.898Z,27.97
2017-11-16T05:05:01.953Z,22.67
2017-11-16T05:07:28.339Z,23.83
2017-11-16T05:09:55.316Z,27.03
2017-11-16T05:12:24.443Z,26.23
2017-11-16T05:14:50.865Z,29.03
2017-11-16T05:17:17.599Z,26.60
2017-11-16T05:19:43.820Z,24.87
2017-11-16T05:22:10.695Z,31.80
2017-11-16T05:24:36.901Z,30.10
2017-11-16T05:27:04.751Z,29.30
2017-11-16T05:29:31.734Z,30.23
2017-11-16T05:31:59.070Z,28.03
2017-11-16T05:34:25.306Z,35.00
2017-11-16T05:36:52.625Z,27.87
2017-11-16T05:39:21.352Z,26.97
2017-11-16T05:41:47.571Z,31.27
2017-11-16T05:44:14.041Z,29.63
2017-11-16T05:46:40.453Z,29.53
2017-11-16T05:49:08.133Z,30.60
2017-11-16T05:51:37.064Z,32.57
2017-11-16T05:54:03.310Z,28.80
2017-11-16T05:56:30.222Z,32.13
2017-11-16T05:58:58.249Z,24.83
2017-11-16T06:01:25.211Z,24.10
2017-11-16T06:03:53.813Z,27.63
2017-11-16T06:06:20.783Z,25.77
2017-11-16T06:08:47.319Z,29.07
2017-11-16T06:11:14.339Z,40.43
2017-11-16T06:13:41.459Z,33.40
2017-11-16T06:16:08.452Z,34.50
2017-11-16T06:18:35.490Z,23.50
2017-11-16T06:21:02.403Z,22.33
2017-11-16T07:01:32.013Z,27.30
2017-11-16T07:03:58.948Z,26.80
2017-11-16T07:06:26.878Z,27.60
2017-11-16T07:08:54.973Z,28.37
2017-11-16T07:11:23.964Z,30.80
2017-11-16T07:13:50.971Z,29.20
2017-11-16T07:16:17.155Z,28.77
2017-11-16T07:18:44.205Z,30.03
2017-11-16T07:21:12.062Z,26.30
2017-11-16T07:23:39.716Z,28.57
2017-11-16T07:26:08.520Z,28.93
2017-11-16T07:28:35.663Z,31.20
2017-11-16T07:31:02.897Z,26.43
2017-11-16T07:33:30.164Z,23.30
2017-11-16T07:35:57.356Z,26.40
2017-11-16T07:38:25.136Z,25.77
2017-11-16T07:40:53.020Z,26.20
2017-11-16T07:43:23.579Z,24.67
2017-11-16T07:45:50.637Z,26.60
2017-11-16T07:48:17.234Z,26.70
2017-11-16T07:50:43.526Z,25.40
2017-11-16T07:53:12.190Z,25.87
2017-11-16T07:55:38.492Z,28.17
2017-11-16T07:58:06.891Z,25.60
2017-11-16T08:00:34.210Z,26.77
2017-11-16T08:03:15.311Z,26.43
2017-11-16T08:05:42.899Z,28.03
2017-11-16T08:08:10.974Z,30.43
2017-11-16T08:10:38.938Z,27.63
2017-11-16T08:13:05.133Z,26.87
2017-11-16T08:15:31.325Z,24.67
2017-11-16T08:17:59.236Z,22.70
2017-11-16T08:20:25.991Z,24.73
2017-11-16T08:22:53.058Z,24.77
2017-11-16T08:25:20.921Z,26.67
2017-11-16T08:27:48.363Z,24.57
2017-11-16T08:30:14.614Z,20.80
2017-11-16T08:32:41.543Z,22.87
2017-11-16T08:35:08.954Z,23.37
2017-11-16T08:37:36.069Z,29.80
2017-11-16T08:40:03.968Z,23.30
2017-11-16T08:42:30.183Z,20.10
2017-11-16T08:44:58.125Z,21.13
2017-11-16T08:47:24.415Z,23.13
2017-11-16T08:49:51.583Z,20.77
2017-11-16T08:52:18.580Z,20.97
2017-11-16T08:54:45.562Z,19.73
2017-11-16T08:57:13.583Z,18.90
2017-11-16T08:59:39.811Z,21.87
2017-11-16T09:02:06.049Z,20.30
2017-11-16T09:04:34.608Z,22.30
2017-11-16T09:07:00.824Z,21.17
2017-11-16T09:09:27.675Z,19.40
2017-11-16T09:11:55.656Z,18.50
2017-11-16T09:14:21.904Z,19.20
2017-11-16T09:16:49.788Z,18.87
2017-11-16T09:19:16.139Z,17.20
2017-11-16T09:21:42.402Z,19.10
2017-11-16T09:24:09.596Z,21.90
2017-11-16T09:26:38.354Z,25.40
2017-11-16T09:29:06.636Z,28.83
2017-11-16T09:31:33.851Z,30.07
2017-11-16T09:34:00.093Z,26.93
2017-11-16T09:36:26.983Z,31.50
2017-11-16T09:38:54.754Z,36.27
2017-11-16T09:41:22.626Z,39.27
2017-11-16T09:43:49.593Z,35.90
2017-11-16T09:46:15.800Z,39.03
2017-11-16T09:48:43.503Z,38.73
2017-11-16T09:51:10.545Z,38.60
2017-11-16T09:53:36.735Z,42.60
2017-11-16T09:56:03.731Z,44.10
2017-11-16T09:58:30.842Z,51.50
2017-11-16T10:00:58.919Z,44.67
2017-11-16T10:03:25.131Z,21.13
2017-11-16T10:05:52.067Z,15.47
2017-11-16T10:08:19.055Z,18.87
2017-11-16T10:10:46.110Z,27.23
2017-11-16T10:13:13.062Z,30.00
2017-11-16T10:15:39.545Z,30.60
2017-11-16T10:18:06.484Z,31.67
2017-11-16T10:20:33.679Z,31.20
2017-11-16T10:23:00.722Z,35.87
2017-11-16T10:25:26.977Z,42.03
2017-11-16T10:27:54.159Z,31.90
2017-11-16T10:30:21.200Z,36.90
2017-11-16T10:32:49.060Z,33.60
2017-11-16T10:35:15.621Z,35.93
2017-11-16T10:37:42.620Z,33.20
2017-11-16T10:40:08.885Z,34.90
2017-11-16T10:42:35.429Z,33.63
2017-11-16T10:45:02.323Z,48.30
2017-11-16T10:47:28.558Z,35.13
2017-11-16T10:49:58.831Z,34.00
2017-11-16T10:52:25.990Z,27.50
2017-11-16T10:54:52.926Z,29.07
2017-11-16T10:57:19.178Z,31.90
2017-11-16T10:59:45.663Z,33.10
2017-11-16T11:02:12.987Z,30.20
2017-11-16T11:04:39.272Z,35.77
2017-11-16T11:07:06.882Z,34.00
2017-11-16T11:09:34.330Z,33.97
2017-11-16T11:12:02.786Z,15.43
2017-11-16T11:14:29.841Z,24.83
2017-11-16T11:16:58.096Z,21.47
2017-11-16T11:19:24.285Z,17.93
2017-11-16T11:21:51.506Z,18.27
2017-11-16T11:24:17.695Z,28.07
2017-11-16T11:26:43.948Z,34.23
2017-11-16T11:29:10.894Z,29.40
2017-11-16T11:31:37.812Z,36.30
2017-11-16T11:34:05.044Z,36.50
2017-11-16T11:36:31.240Z,36.60
2017-11-16T11:38:57.537Z,41.00
2017-11-16T11:41:23.763Z,35.30
2017-11-16T11:43:50.312Z,38.60
2017-11-16T11:46:17.204Z,39.30
2017-11-16T11:48:43.615Z,41.03
2017-11-16T11:51:11.371Z,53.73
2017-11-16T11:53:38.180Z,49.67
2017-11-16T11:56:04.491Z,38.27
2017-11-16T11:58:30.734Z,44.23
2017-11-16T12:00:56.953Z,41.43
2017-11-16T12:03:23.874Z,38.17
2017-11-16T12:05:50.101Z,38.37
2017-11-16T12:08:16.337Z,40.57
2017-11-16T12:10:42.552Z,43.43
2017-11-16T12:13:09.757Z,47.77
2017-11-16T12:15:36.050Z,44.50
2017-11-16T12:18:03.051Z,36.30
2017-11-16T12:20:29.965Z,40.13
2017-11-16T12:22:56.974Z,39.70
2017-11-16T12:25:23.228Z,40.57
2017-11-16T12:27:49.432Z,38.00
2017-11-16T12:30:15.740Z,38.50
2017-11-16T12:32:42.662Z,41.53
2017-11-16T12:35:12.083Z,38.90
2017-11-16T12:37:39.046Z,35.40
2017-11-16T12:40:06.160Z,33.67
2017-11-16T12:42:32.355Z,34.00
2017-11-16T12:44:58.585Z,34.17
2017-11-16T12:47:24.886Z,42.60
2017-11-16T12:59:42.662Z,54.23
2017-11-16T13:02:11.492Z,45.97
2017-11-16T13:04:39.451Z,54.77
2017-11-16T13:07:05.868Z,56.60
2017-11-16T13:09:32.836Z,49.33
2017-11-16T13:11:59.947Z,54.40
2017-11-16T13:14:26.697Z,49.73
2017-11-16T13:16:54.076Z,35.53
2017-11-16T13:19:20.229Z,30.87
2017-11-16T13:21:46.465Z,30.93
2017-11-16T13:24:14.435Z,31.07
2017-11-16T13:26:40.629Z,41.40
2017-11-16T13:29:07.957Z,31.03
2017-11-16T13:31:34.871Z,34.43
2017-11-16T13:34:01.069Z,29.60
2017-11-16T13:36:27.354Z,30.17
2017-11-16T13:38:55.836Z,33.50
2017-11-16T13:41:23.677Z,30.80
2017-11-16T13:43:49.893Z,32.90
2017-11-16T13:46:17.394Z,35.77
2017-11-16T13:48:44.687Z,23.73
2017-11-16T13:51:11.658Z,30.80
2017-11-16T13:53:38.613Z,28.93
2017-11-16T13:56:04.880Z,36.17
2017-11-16T13:58:31.969Z,34.63
2017-11-16T14:00:58.744Z,33.03
2017-11-16T14:03:25.051Z,44.20
2017-11-16T14:05:51.253Z,31.90
2017-11-16T14:08:17.650Z,40.03
2017-11-16T14:10:45.533Z,37.10
2017-11-16T14:13:12.116Z,33.80
2017-11-16T14:15:38.346Z,35.83
2017-11-16T14:18:05.212Z,32.60
2017-11-16T14:30:22.401Z,37.97
2017-11-16T14:32:48.631Z,39.77
2017-11-16T14:35:15.574Z,35.00
2017-11-16T14:37:42.952Z,36.53
2017-11-16T14:40:10.324Z,40.00
2017-11-16T14:42:37.329Z,36.20
2017-11-16T14:45:05.290Z,36.67
2017-11-16T14:47:31.513Z,38.93
2017-11-16T14:49:59.149Z,34.43
2017-11-16T14:52:25.398Z,38.20
2017-11-16T14:54:51.784Z,34.57
2017-11-16T14:57:19.146Z,39.27
2017-11-16T14:59:46.109Z,32.77
2017-11-16T15:02:12.338Z,41.87
2017-11-16T15:04:39.156Z,38.80
2017-11-16T15:07:07.910Z,37.07
2017-11-16T15:09:34.104Z,36.30
2017-11-16T15:12:00.356Z,36.97
2017-11-16T15:14:26.868Z,33.33
2017-11-16T15:16:53.943Z,35.23
2017-11-16T15:19:20.109Z,35.00
2017-11-16T15:21:48.424Z,42.10
2017-11-16T15:24:15.923Z,49.03
2017-11-16T15:26:42.899Z,39.73
2017-11-16T15:29:11.727Z,43.03
2017-11-16T15:31:38.923Z,42.70
2017-11-16T15:34:05.536Z,45.70
2017-11-16T15:36:32.869Z,43.20
2017-11-16T15:39:00.035Z,42.20
2017-11-16T15:41:26.356Z,36.57
2017-11-16T15:43:52.572Z,40.73
2017-11-16T15:46:19.793Z,30.23
2017-11-16T15:48:47.551Z,36.20
2017-11-16T15:51:15.293Z,44.70
2017-11-16T15:53:41.561Z,41.50
2017-11-16T15:56:08.531Z,31.17
2017-11-16T15:58:34.778Z,31.53
2017-11-16T16:01:02.954Z,34.27
2017-11-16T16:03:29.210Z,32.77
2017-11-16T16:05:55.841Z,38.40
2017-11-16T16:08:22.084Z,35.87
2017-11-16T16:10:49.897Z,33.03
2017-11-16T16:13:16.139Z,39.73
2017-11-16T16:15:42.759Z,34.53
2017-11-16T16:18:12.218Z,40.13
2017-11-16T16:20:38.420Z,39.53
2017-11-16T16:23:05.191Z,34.23
2017-11-16T16:25:31.428Z,40.67
2017-11-16T16:27:58.428Z,50.13
2017-11-16T16:30:25.038Z,49.60
2017-11-16T16:32:53.443Z,35.77
2017-11-16T16:35:19.999Z,50.50
2017-11-16T16:37:46.275Z,35.57
2017-11-16T16:40:12.889Z,34.53
2017-11-16T16:42:40.910Z,41.43
2017-11-16T16:45:08.990Z,40.90
2017-11-16T16:47:35.191Z,39.03
2017-11-16T16:50:02.685Z,39.37
2017-11-16T16:52:30.015Z,44.63
2017-11-16T16:54:56.989Z,40.13
2017-11-16T16:57:23.225Z,45.97
2017-11-16T16:59:49.890Z,43.15
2017-11-16T17:02:16.575Z,41.30
2017-11-16T17:04:43.103Z,34.20
2017-11-16T17:07:10.110Z,41.50
2017-11-16T17:09:37.141Z,53.23
2017-11-16T17:12:04.024Z,41.67
2017-11-16T17:14:30.982Z,43.00
2017-11-16T17:16:58.896Z,50.67
2017-11-16T17:19:26.048Z,58.33
2017-11-16T17:21:54.390Z,50.10
2017-11-16T17:24:20.642Z,45.37
2017-11-16T17:26:47.269Z,54.27
2017-11-16T17:39:04.377Z,76.47
2017-11-16T17:41:34.275Z,74.70
2017-11-16T17:44:03.168Z,74.87
2017-11-16T17:46:29.579Z,73.40
2017-11-16T17:48:56.810Z,69.03
2017-11-16T17:51:23.747Z,78.57
2017-11-16T17:53:50.027Z,70.23
2017-11-16T17:56:16.219Z,76.27
2017-11-16T17:58:43.117Z,71.90
2017-11-16T18:01:09.392Z,79.70
2017-11-16T18:03:37.024Z,83.33
2017-11-16T18:06:04.022Z,66.20
2017-11-16T18:08:30.302Z,74.37
2017-11-16T18:10:57.385Z,78.43
2017-11-16T18:13:24.425Z,77.37
2017-11-16T18:15:52.351Z,65.37
2017-11-16T18:18:19.330Z,65.75
2017-11-16T18:20:46.649Z,75.73
2017-11-16T18:23:12.863Z,79.03
2017-11-16T18:25:39.241Z,66.73
2017-11-16T18:28:06.385Z,83.73
2017-11-16T18:30:32.601Z,70.87
2017-11-16T18:33:00.789Z,82.50
2017-11-16T18:35:27.061Z,72.05
2017-11-16T18:37:53.700Z,72.43
2017-11-16T18:40:21.138Z,70.90
2017-11-16T18:42:47.595Z,50.20
2017-11-16T18:45:15.157Z,40.43
2017-11-16T18:47:42.700Z,65.57
2017-11-16T18:50:10.605Z,63.27
2017-11-16T18:52:37.379Z,69.47
2017-11-16T18:55:04.032Z,67.37
2017-11-16T18:57:30.257Z,64.77
2017-11-16T18:59:56.935Z,72.83
2017-11-16T19:02:24.000Z,68.40
2017-11-16T19:04:51.052Z,63.97
2017-11-16T19:07:19.313Z,66.87
2017-11-16T19:09:45.552Z,68.90
2017-11-16T19:12:11.991Z,70.27
2017-11-16T19:14:43.123Z,42.77
2017-11-16T19:17:09.399Z,44.63
2017-11-16T19:19:36.719Z,67.10
2017-11-16T19:22:02.971Z,65.83
2017-11-16T19:24:29.285Z,72.37
2017-11-16T19:26:55.553Z,71.20
2017-11-16T19:29:22.473Z,68.77
2017-11-16T19:31:48.816Z,62.67
2017-11-16T19:34:15.399Z,77.73
2017-11-16T19:36:42.793Z,66.13
2017-11-16T19:39:09.976Z,65.60
2017-11-16T19:41:36.278Z,66.90
2017-11-16T19:44:03.416Z,61.80
2017-11-16T19:46:29.727Z,58.50
2017-11-16T19:48:56.192Z,71.73
2017-11-16T19:51:22.926Z,71.67
2017-11-16T19:53:49.280Z,67.00
2017-11-16T19:56:15.900Z,64.60
2017-11-16T19:58:43.396Z,68.23
2017-11-16T20:01:09.973Z,69.83
2017-11-16T20:03:36.565Z,71.53
2017-11-16T20:06:04.370Z,61.63
2017-11-16T20:08:30.873Z,70.63
2017-11-16T20:10:59.049Z,70.43
2017-11-16T20:13:26.002Z,60.53
2017-11-16T20:15:53.842Z,69.23
2017-11-16T20:18:24.351Z,61.07
2017-11-16T20:20:50.624Z,71.57
2017-11-16T20:23:18.543Z,69.37
2017-11-16T20:25:45.590Z,76.07
2017-11-16T20:28:13.006Z,62.60
2017-11-16T20:30:40.914Z,79.83
2017-11-16T20:33:09.544Z,74.37
2017-11-16T20:35:36.892Z,70.10
2017-11-16T20:38:04.426Z,66.70
2017-11-16T20:40:38.536Z,77.67
2017-11-16T20:43:04.811Z,72.60
2017-11-16T20:45:39.821Z,128.30
2017-11-16T20:48:09.960Z,154.87
2017-11-16T20:50:53.972Z,95.87
2017-11-16T20:53:25.687Z,78.37
2017-11-16T20:55:53.563Z,75.80
2017-11-16T20:58:54.125Z,83.43
2017-11-16T21:01:20.468Z,81.07
2017-11-16T21:03:47.238Z,86.67
2017-11-16T21:06:13.825Z,77.70
2017-11-16T21:08:40.704Z,78.35
2017-11-16T21:11:07.789Z,93.63
2017-11-16T21:13:34.855Z,88.13
2017-11-16T21:16:01.053Z,82.27
2017-11-16T21:18:28.428Z,67.87
2017-11-16T21:20:55.565Z,69.43
2017-11-16T21:23:22.866Z,73.87
2017-11-16T21:25:49.104Z,74.75
2017-11-16T21:28:16.182Z,74.63
2017-11-16T21:30:43.931Z,69.33
2017-11-16T21:33:11.468Z,80.77
2017-11-16T21:35:38.100Z,81.20
2017-11-16T21:38:08.400Z,72.63
2017-11-16T21:40:37.352Z,75.57
2017-11-16T21:43:05.072Z,86.53
2017-11-16T21:45:31.327Z,83.77
2017-11-16T21:47:59.563Z,68.10
2017-11-16T21:50:28.154Z,76.13
2017-11-16T21:52:55.000Z,73.60
2017-11-16T21:55:22.146Z,64.00
2017-11-16T21:57:49.867Z,78.53
2017-11-16T22:00:18.959Z,80.62
2017-11-16T22:02:45.512Z,71.97
2017-11-16T22:05:13.706Z,73.33
2017-11-16T22:07:41.949Z,83.43
2017-11-16T22:10:09.809Z,68.00
2017-11-16T22:12:36.009Z,69.13
2017-11-16T22:15:02.400Z,70.00
2017-11-16T22:17:32.206Z,71.47
2017-11-16T22:19:59.688Z,63.57
2017-11-16T22:22:29.140Z,67.70
2017-11-16T22:24:56.070Z,69.37
2017-11-16T22:27:22.413Z,65.77
2017-11-16T22:29:49.154Z,75.10
2017-11-16T22:32:16.721Z,67.13
2017-11-16T22:34:44.212Z,78.67
2017-11-16T22:37:11.930Z,62.53
2017-11-16T22:39:38.158Z,80.10
2017-11-16T22:42:06.743Z,82.50
2017-11-16T22:44:33.195Z,62.22
2017-11-16T22:46:59.405Z,59.17
2017-11-16T22:49:26.792Z,61.63
2017-11-16T22:51:52.994Z,52.73
2017-11-16T22:54:19.302Z,72.20
2017-11-16T22:56:45.450Z,62.23
2017-11-16T22:59:11.788Z,49.93
2017-11-16T23:01:38.133Z,53.37
2017-11-16T23:04:04.692Z,51.73
2017-11-16T23:06:30.895Z,51.28
2017-11-16T23:08:59.794Z,53.73
2017-11-16T23:11:28.824Z,58.77
2017-11-16T23:13:56.648Z,52.00
2017-11-16T23:16:23.258Z,53.40
2017-11-16T23:18:49.784Z,48.97
2017-11-16T23:21:16.610Z,50.13
2017-11-16T23:23:43.796Z,53.17
2017-11-16T23:26:10.332Z,58.23
2017-11-16T23:28:37.642Z,64.43
2017-11-16T23:31:05.036Z,65.97
2017-11-16T23:33:31.179Z,74.63
2017-11-16T23:35:58.171Z,63.60
2017-11-16T23:38:25.411Z,55.35
2017-11-16T23:40:51.665Z,66.53
2017-11-16T23:43:18.616Z,72.03
2017-11-16T23:45:45.255Z,71.05
2017-11-16T23:48:18.255Z,64.03
2017-11-16T23:50:44.589Z,61.37
2017-11-16T23:53:11.605Z,78.03
2017-11-16T23:55:39.504Z,76.30
2017-11-16T23:58:06.871Z,69.33
